createdAt,value
2023-03-15T00:01:12.593Z,20477.33333
2023-03-15T00:06:14.329Z,20477.33333
2023-03-15T00:11:16.172Z,20477.33333
2023-03-15T00:16:18.026Z,20477.33333
2023-03-15T00:21:19.839Z,20477.33333
2023-03-15T00:26:21.663Z,15344
2023-03-15T00:31:23.671Z,15344
2023-03-15T00:36:25.488Z,15344
2023-03-15T00:41:27.341Z,12264
2023-03-15T00:46:29.125Z,10210.66667
2023-03-15T00:51:30.914Z,8744
2023-03-15T00:56:32.412Z,7644
2023-03-15T01:01:34.180Z,6788.44444
2023-03-15T01:06:36.183Z,6104
2023-03-15T01:11:37.973Z,5544
2023-03-15T01:16:39.708Z,4344
2023-03-15T01:21:41.423Z,3366.22222
2023-03-15T01:26:43.155Z,3186.10526
2023-03-15T01:31:44.819Z,2877.33333
2023-03-15T01:36:46.519Z,2744
2023-03-15T01:41:48.287Z,2622.26087
2023-03-15T01:46:49.841Z,2622.26087
2023-03-15T01:51:51.642Z,2622.26087
2023-03-15T01:56:53.467Z,2510.66667
2023-03-15T02:01:55.363Z,2408
2023-03-15T02:06:57.108Z,2744
2023-03-15T02:11:58.864Z,2877.33333
2023-03-15T02:17:00.601Z,2877.33333
2023-03-15T02:22:02.130Z,3366.22222
2023-03-15T02:27:04.054Z,3794
2023-03-15T02:32:05.898Z,3794
2023-03-15T02:37:07.444Z,4050.66667
2023-03-15T02:42:09.154Z,3794
2023-03-15T02:47:10.799Z,4050.66667
2023-03-15T02:52:12.467Z,3794
2023-03-15T02:57:14.339Z,4050.66667
2023-03-15T03:02:16.033Z,3794
2023-03-15T03:07:17.837Z,3794
2023-03-15T03:12:19.610Z,3366.22222
2023-03-15T03:17:21.370Z,3366.22222
2023-03-15T03:22:23.087Z,3186.10526
2023-03-15T03:27:24.957Z,3024
2023-03-15T03:32:26.785Z,2877.33333
2023-03-15T03:37:28.560Z,2744
2023-03-15T03:42:30.484Z,2622.26087
2023-03-15T03:47:32.235Z,2622.26087
2023-03-15T03:52:33.970Z,2510.66667
2023-03-15T03:57:35.767Z,2510.66667
2023-03-15T04:02:37.649Z,2408
2023-03-15T04:07:39.567Z,2408
2023-03-15T04:12:41.359Z,2225.48148
2023-03-15T04:17:43.138Z,2225.48148
2023-03-15T04:22:44.884Z,2068.13793
2023-03-15T04:27:46.842Z,2144
2023-03-15T04:32:48.660Z,2068.13793
2023-03-15T04:37:50.437Z,1997.33333
2023-03-15T04:42:52.263Z,1997.33333
2023-03-15T04:47:54.145Z,1997.33333
2023-03-15T04:52:55.865Z,1997.33333
2023-03-15T04:57:57.634Z,1997.33333
2023-03-15T05:02:59.306Z,1997.33333
2023-03-15T05:08:01.061Z,1997.33333
2023-03-15T05:13:02.570Z,1997.33333
2023-03-15T05:18:04.121Z,2144
2023-03-15T05:23:05.596Z,1931.09677
2023-03-15T05:28:07.156Z,1997.33333
2023-03-15T05:33:08.685Z,1931.09677
2023-03-15T05:38:10.115Z,2068.13793
2023-03-15T05:43:11.697Z,2225.48148
2023-03-15T05:48:13.172Z,2408
2023-03-15T05:53:14.675Z,2313.23077
2023-03-15T05:58:16.189Z,2510.66667
2023-03-15T06:03:17.794Z,2313.23077
2023-03-15T06:08:19.475Z,2225.48148
2023-03-15T06:13:21.504Z,2408
2023-03-15T06:18:22.963Z,2225.48148
2023-03-15T06:23:24.631Z,2225.48148
2023-03-15T06:28:26.449Z,2144
2023-03-15T06:33:28.080Z,1931.09677
2023-03-15T06:38:29.701Z,2068.13793
2023-03-15T06:43:31.443Z,2068.13793
2023-03-15T06:48:33.101Z,2068.13793
2023-03-15T06:53:34.869Z,2068.13793
2023-03-15T06:58:36.577Z,2225.48148
2023-03-15T07:03:38.312Z,2408
2023-03-15T07:08:40.171Z,2313.23077
2023-03-15T07:13:41.992Z,2408
2023-03-15T07:18:43.772Z,2144
2023-03-15T07:23:45.659Z,2744
2023-03-15T07:28:47.450Z,2877.33333
2023-03-15T07:33:49.185Z,2744
2023-03-15T07:38:50.975Z,2510.66667
2023-03-15T07:43:52.816Z,3186.10526
2023-03-15T07:48:54.596Z,3186.10526
2023-03-15T07:53:56.336Z,3567.52941
2023-03-15T07:58:58.198Z,2744
2023-03-15T08:03:59.857Z,3794
2023-03-15T08:09:01.679Z,3366.22222
2023-03-15T08:14:03.115Z,4682.46154
2023-03-15T08:19:04.681Z,15344
2023-03-15T08:24:06.149Z,12264
2023-03-15T08:29:07.698Z,20477.33333
2023-03-15T08:34:09.178Z,30744
2023-03-15T08:39:10.655Z,30744
2023-03-15T08:44:12.176Z,30744
2023-03-15T08:49:13.668Z,61544
2023-03-15T08:54:15.122Z,61544
2023-03-15T08:59:25.549Z,0
2023-03-15T09:04:32.786Z,0
2023-03-15T09:09:34.374Z,0
2023-03-15T09:14:36.214Z,0
2023-03-15T09:19:37.974Z,0
2023-03-15T09:24:39.664Z,0
2023-03-15T09:29:41.394Z,0
2023-03-15T09:34:43.550Z,0
2023-03-15T09:39:45.289Z,0
2023-03-15T09:44:47.063Z,0
2023-03-15T09:49:48.844Z,0
2023-03-15T09:54:50.641Z,0
2023-03-15T09:59:52.097Z,0
2023-03-15T10:04:53.922Z,0
2023-03-15T10:09:55.699Z,0
2023-03-15T10:14:57.621Z,0
2023-03-15T10:19:59.422Z,0
2023-03-15T10:25:01.481Z,0
2023-03-15T10:30:03.190Z,0
2023-03-15T10:35:04.719Z,0
2023-03-15T10:40:06.443Z,0
2023-03-15T10:45:08.377Z,0
2023-03-15T10:50:10.151Z,0
2023-03-15T10:55:11.913Z,0
2023-03-15T11:00:13.726Z,0
2023-03-15T11:05:15.667Z,0
2023-03-15T11:10:17.413Z,0
2023-03-15T11:15:19.474Z,0
2023-03-15T11:20:20.951Z,0
2023-03-15T11:25:24.936Z,0
2023-03-15T11:30:26.602Z,0
2023-03-15T11:35:28.561Z,0
2023-03-15T11:40:30.365Z,0
2023-03-15T11:45:32.069Z,0
2023-03-15T11:50:33.862Z,0
2023-03-15T11:55:35.647Z,0
2023-03-15T12:00:37.400Z,61544
2023-03-15T12:05:39.287Z,61544
2023-03-15T12:10:41.034Z,0
2023-03-15T12:15:42.929Z,0
2023-03-15T12:20:44.698Z,0
2023-03-15T12:25:54.783Z,0
2023-03-15T12:30:57.342Z,0
2023-03-15T12:35:59.178Z,0
2023-03-15T12:41:00.984Z,0
2023-03-15T12:46:02.892Z,0
2023-03-15T12:51:04.566Z,0
2023-03-15T12:56:08.772Z,0
2023-03-15T13:01:11.114Z,0
2023-03-15T13:06:12.639Z,0
2023-03-15T13:11:14.349Z,0
2023-03-15T13:16:15.864Z,0
2023-03-15T13:21:17.463Z,0
2023-03-15T13:26:19.110Z,0
2023-03-15T13:31:20.863Z,0
2023-03-15T13:36:22.622Z,0
2023-03-15T13:41:24.298Z,0
2023-03-15T13:51:36.408Z,0
2023-03-15T13:56:48.765Z,0
2023-03-15T14:01:51.137Z,0
2023-03-15T14:06:52.666Z,0
2023-03-15T14:11:54.160Z,0
2023-03-15T14:17:05.319Z,0
2023-03-15T14:22:07.550Z,0
2023-03-15T14:27:09.020Z,0
2023-03-15T14:32:11.349Z,0
2023-03-15T14:37:12.923Z,0
2023-03-15T14:42:14.492Z,0
2023-03-15T14:47:16.171Z,-61656
2023-03-15T14:52:17.840Z,0
2023-03-15T14:57:19.599Z,0
2023-03-15T15:02:21.779Z,0
2023-03-15T15:07:23.600Z,0
2023-03-15T15:12:25.376Z,0
2023-03-15T15:17:27.012Z,0
2023-03-15T15:22:28.772Z,0
2023-03-15T15:27:30.849Z,0
2023-03-15T15:32:32.789Z,0
2023-03-15T15:37:34.591Z,0
2023-03-15T15:42:36.366Z,0
2023-03-15T15:47:38.163Z,61544
2023-03-15T15:52:39.715Z,61544
2023-03-15T15:57:43.467Z,61544
2023-03-15T16:02:45.288Z,30744
2023-03-15T16:07:47.078Z,61544
2023-03-15T16:12:48.878Z,61544
2023-03-15T16:17:50.611Z,61544
2023-03-15T16:22:52.467Z,30744
2023-03-15T16:27:54.232Z,61544
2023-03-15T16:32:56.086Z,61544
2023-03-15T16:37:57.872Z,61544
2023-03-15T16:42:59.990Z,61544
2023-03-15T16:48:01.831Z,61544
2023-03-15T16:53:03.584Z,30744
2023-03-15T16:58:05.154Z,61544
2023-03-15T17:03:06.799Z,61544
2023-03-15T17:08:08.418Z,30744
2023-03-15T17:13:10.141Z,61544
2023-03-15T17:18:11.808Z,61544
2023-03-15T17:23:13.284Z,61544
2023-03-15T17:28:14.869Z,61544
2023-03-15T17:33:16.387Z,0
2023-03-15T17:38:18.004Z,0
2023-03-15T17:43:19.702Z,0
2023-03-15T17:48:21.545Z,61544
2023-03-15T17:53:23.185Z,12264
2023-03-15T17:58:24.871Z,12264
2023-03-15T18:03:26.501Z,10210.66667
2023-03-15T18:08:28.263Z,8744
2023-03-15T18:13:29.893Z,7644
2023-03-15T18:18:31.643Z,6788.44444
2023-03-15T18:23:33.367Z,7644
2023-03-15T18:28:35.186Z,10210.66667
2023-03-15T18:33:37.036Z,12264
2023-03-15T18:38:39.062Z,12264
2023-03-15T18:43:40.856Z,12264
2023-03-15T18:48:42.592Z,12264
2023-03-15T18:53:44.396Z,8744
2023-03-15T18:58:46.198Z,7644
2023-03-15T19:03:48.008Z,10210.66667
2023-03-15T19:08:49.840Z,12264
2023-03-15T19:13:51.665Z,15344
2023-03-15T19:18:53.418Z,15344
2023-03-15T19:23:57.147Z,15344
2023-03-15T19:28:59.980Z,12264
2023-03-15T19:34:01.747Z,10210.66667
2023-03-15T19:39:03.513Z,7644
2023-03-15T19:44:05.285Z,6104
2023-03-15T19:49:06.788Z,5544
2023-03-15T19:54:08.269Z,8744
2023-03-15T19:59:09.801Z,12264
2023-03-15T20:04:11.576Z,15344
2023-03-15T20:09:13.105Z,20477.33333
2023-03-15T20:14:14.563Z,20477.33333
2023-03-15T20:19:16.066Z,20477.33333
2023-03-15T20:24:17.669Z,20477.33333
2023-03-15T20:29:19.109Z,20477.33333
2023-03-15T20:34:20.634Z,20477.33333
2023-03-15T20:39:22.107Z,20477.33333
2023-03-15T20:44:23.566Z,15344
2023-03-15T20:49:25.905Z,20477.33333
2023-03-15T20:54:28.538Z,15344
2023-03-15T20:59:30.001Z,15344
2023-03-15T21:04:31.732Z,12264
2023-03-15T21:09:33.453Z,12264
2023-03-15T21:14:35.056Z,15344
2023-03-15T21:19:36.563Z,15344
2023-03-15T21:24:49.416Z,15344
2023-03-15T21:29:56.529Z,20477.33333
2023-03-15T21:34:58.051Z,20477.33333
2023-03-15T21:39:59.482Z,20477.33333
2023-03-15T21:45:01.032Z,20477.33333
2023-03-15T21:50:02.511Z,15344
2023-03-15T21:55:03.991Z,15344
2023-03-15T22:00:05.490Z,12264
2023-03-15T22:05:07.142Z,12264
2023-03-15T22:10:08.622Z,10210.66667
2023-03-15T22:15:10.124Z,10210.66667
2023-03-15T22:20:11.595Z,10210.66667
2023-03-15T22:25:13.089Z,10210.66667
2023-03-15T22:30:14.855Z,8744
2023-03-15T22:35:16.406Z,10210.66667
2023-03-15T22:40:17.939Z,10210.66667
2023-03-15T22:45:19.424Z,10210.66667
2023-03-15T22:50:20.870Z,10210.66667
2023-03-15T22:55:22.330Z,10210.66667
2023-03-15T23:00:24.309Z,12264
2023-03-15T23:05:25.977Z,15344
2023-03-15T23:10:27.980Z,12264
2023-03-15T23:15:29.642Z,12264
2023-03-15T23:20:31.220Z,12264
2023-03-15T23:25:32.665Z,10210.66667
2023-03-15T23:30:35.878Z,10210.66667
2023-03-15T23:35:37.887Z,10210.66667
2023-03-15T23:40:39.441Z,10210.66667
2023-03-15T23:45:41.007Z,10210.66667
2023-03-15T23:50:42.745Z,8744
2023-03-15T23:55:44.210Z,8744
